sensor_id;sensor_type;location;lat;lon;timestamp;P1;durP1;ratioP1;P2;durP2;ratioP2
63312;SDS011;49442;45.640;13.812;2023-05-07T00:00:37;5.20;;;3.47;;
63312;SDS011;49442;45.640;13.812;2023-05-07T00:03:03;4.35;;;3.63;;
63312;SDS011;49442;45.640;13.812;2023-05-07T00:05:29;7.85;;;4.05;;
63312;SDS011;49442;45.640;13.812;2023-05-07T00:07:54;4.18;;;3.75;;
63312;SDS011;49442;45.640;13.812;2023-05-07T00:10:20;5.45;;;3.83;;
63312;SDS011;49442;45.640;13.812;2023-05-07T00:12:46;4.78;;;3.53;;
63312;SDS011;49442;45.640;13.812;2023-05-07T00:15:12;5.60;;;3.72;;
63312;SDS011;49442;45.640;13.812;2023-05-07T00:17:38;4.55;;;3.75;;
63312;SDS011;49442;45.640;13.812;2023-05-07T00:20:04;4.72;;;4.10;;
63312;SDS011;49442;45.640;13.812;2023-05-07T00:22:30;5.03;;;3.80;;
63312;SDS011;49442;45.640;13.812;2023-05-07T00:24:57;4.93;;;4.07;;
63312;SDS011;49442;45.640;13.812;2023-05-07T00:27:24;5.32;;;4.57;;
63312;SDS011;49442;45.640;13.812;2023-05-07T00:29:50;4.30;;;3.90;;
63312;SDS011;49442;45.640;13.812;2023-05-07T00:32:16;4.80;;;4.00;;
63312;SDS011;49442;45.640;13.812;2023-05-07T00:34:42;4.57;;;3.63;;
63312;SDS011;49442;45.640;13.812;2023-05-07T00:37:08;6.03;;;3.58;;
63312;SDS011;49442;45.640;13.812;2023-05-07T00:39:34;6.55;;;4.13;;
63312;SDS011;49442;45.640;13.812;2023-05-07T00:42:00;4.05;;;3.60;;
63312;SDS011;49442;45.640;13.812;2023-05-07T00:44:27;5.70;;;3.83;;
63312;SDS011;49442;45.640;13.812;2023-05-07T00:46:54;4.20;;;3.63;;
63312;SDS011;49442;45.640;13.812;2023-05-07T00:49:27;3.83;;;3.42;;
63312;SDS011;49442;45.640;13.812;2023-05-07T00:52:03;6.10;;;4.22;;
63312;SDS011;49442;45.640;13.812;2023-05-07T00:54:31;5.40;;;3.70;;
63312;SDS011;49442;45.640;13.812;2023-05-07T00:56:57;7.35;;;4.82;;
63312;SDS011;49442;45.640;13.812;2023-05-07T00:59:23;4.80;;;4.10;;
63312;SDS011;49442;45.640;13.812;2023-05-07T01:01:48;6.25;;;4.00;;
63312;SDS011;49442;45.640;13.812;2023-05-07T01:04:14;6.15;;;4.13;;
63312;SDS011;49442;45.640;13.812;2023-05-07T01:06:40;6.00;;;4.30;;
63312;SDS011;49442;45.640;13.812;2023-05-07T01:09:06;5.63;;;4.30;;
63312;SDS011;49442;45.640;13.812;2023-05-07T01:11:34;4.43;;;3.80;;
63312;SDS011;49442;45.640;13.812;2023-05-07T01:13:59;3.95;;;3.55;;
63312;SDS011;49442;45.640;13.812;2023-05-07T01:16:25;7.43;;;3.33;;
63312;SDS011;49442;45.640;13.812;2023-05-07T01:18:52;4.25;;;3.72;;
63312;SDS011;49442;45.640;13.812;2023-05-07T01:21:18;7.22;;;3.75;;
63312;SDS011;49442;45.640;13.812;2023-05-07T01:23:47;5.25;;;3.72;;
63312;SDS011;49442;45.640;13.812;2023-05-07T01:26:13;4.07;;;3.55;;
63312;SDS011;49442;45.640;13.812;2023-05-07T01:28:39;5.68;;;3.90;;
63312;SDS011;49442;45.640;13.812;2023-05-07T01:31:05;4.32;;;3.92;;
63312;SDS011;49442;45.640;13.812;2023-05-07T01:33:32;4.78;;;3.67;;
63312;SDS011;49442;45.640;13.812;2023-05-07T01:36:00;6.93;;;4.18;;
63312;SDS011;49442;45.640;13.812;2023-05-07T01:38:28;4.10;;;3.70;;
63312;SDS011;49442;45.640;13.812;2023-05-07T01:40:55;4.13;;;3.72;;
63312;SDS011;49442;45.640;13.812;2023-05-07T01:43:21;4.03;;;3.38;;
63312;SDS011;49442;45.640;13.812;2023-05-07T01:45:47;4.15;;;3.67;;
63312;SDS011;49442;45.640;13.812;2023-05-07T01:48:14;7.05;;;3.90;;
63312;SDS011;49442;45.640;13.812;2023-05-07T01:50:41;5.85;;;3.45;;
63312;SDS011;49442;45.640;13.812;2023-05-07T01:53:08;4.25;;;3.85;;
63312;SDS011;49442;45.640;13.812;2023-05-07T01:55:34;7.82;;;3.78;;
63312;SDS011;49442;45.640;13.812;2023-05-07T01:58:01;4.10;;;3.67;;
63312;SDS011;49442;45.640;13.812;2023-05-07T02:00:27;7.55;;;3.33;;
63312;SDS011;49442;45.640;13.812;2023-05-07T02:02:54;5.78;;;3.63;;
63312;SDS011;49442;45.640;13.812;2023-05-07T02:05:19;7.65;;;3.65;;
63312;SDS011;49442;45.640;13.812;2023-05-07T02:07:46;4.88;;;3.63;;
63312;SDS011;49442;45.640;13.812;2023-05-07T02:10:11;4.20;;;3.78;;
63312;SDS011;49442;45.640;13.812;2023-05-07T02:12:37;3.70;;;3.15;;
63312;SDS011;49442;45.640;13.812;2023-05-07T02:15:03;5.28;;;3.22;;
63312;SDS011;49442;45.640;13.812;2023-05-07T02:17:29;7.53;;;3.70;;
63312;SDS011;49442;45.640;13.812;2023-05-07T02:19:56;4.45;;;3.60;;
63312;SDS011;49442;45.640;13.812;2023-05-07T02:22:22;4.13;;;3.70;;
63312;SDS011;49442;45.640;13.812;2023-05-07T02:24:48;4.75;;;3.75;;
63312;SDS011;49442;45.640;13.812;2023-05-07T02:27:14;5.03;;;3.28;;
63312;SDS011;49442;45.640;13.812;2023-05-07T02:29:39;4.72;;;3.25;;
63312;SDS011;49442;45.640;13.812;2023-05-07T02:32:05;4.32;;;3.53;;
63312;SDS011;49442;45.640;13.812;2023-05-07T02:34:31;3.90;;;3.25;;
63312;SDS011;49442;45.640;13.812;2023-05-07T02:36:57;3.72;;;3.30;;
63312;SDS011;49442;45.640;13.812;2023-05-07T02:39:22;4.97;;;3.65;;
63312;SDS011;49442;45.640;13.812;2023-05-07T02:41:48;6.10;;;3.08;;
63312;SDS011;49442;45.640;13.812;2023-05-07T02:44:14;5.93;;;4.35;;
63312;SDS011;49442;45.640;13.812;2023-05-07T02:46:39;4.50;;;3.65;;
63312;SDS011;49442;45.640;13.812;2023-05-07T02:49:05;8.80;;;4.05;;
63312;SDS011;49442;45.640;13.812;2023-05-07T02:51:31;3.47;;;3.15;;
63312;SDS011;49442;45.640;13.812;2023-05-07T02:53:57;4.68;;;3.70;;
63312;SDS011;49442;45.640;13.812;2023-05-07T02:56:26;6.07;;;3.63;;
63312;SDS011;49442;45.640;13.812;2023-05-07T02:58:52;4.25;;;3.53;;
63312;SDS011;49442;45.640;13.812;2023-05-07T03:01:17;5.63;;;3.92;;
63312;SDS011;49442;45.640;13.812;2023-05-07T03:03:43;4.60;;;3.67;;
63312;SDS011;49442;45.640;13.812;2023-05-07T03:06:09;7.03;;;4.13;;
63312;SDS011;49442;45.640;13.812;2023-05-07T03:08:35;4.75;;;3.33;;
63312;SDS011;49442;45.640;13.812;2023-05-07T03:11:01;4.32;;;3.65;;
63312;SDS011;49442;45.640;13.812;2023-05-07T03:13:27;3.58;;;3.00;;
63312;SDS011;49442;45.640;13.812;2023-05-07T03:15:53;4.80;;;3.30;;
63312;SDS011;49442;45.640;13.812;2023-05-07T03:18:19;4.25;;;3.85;;
63312;SDS011;49442;45.640;13.812;2023-05-07T03:20:44;5.53;;;3.50;;
63312;SDS011;49442;45.640;13.812;2023-05-07T03:23:11;4.28;;;3.70;;
63312;SDS011;49442;45.640;13.812;2023-05-07T03:25:36;5.72;;;4.13;;
63312;SDS011;49442;45.640;13.812;2023-05-07T03:28:02;6.93;;;3.65;;
63312;SDS011;49442;45.640;13.812;2023-05-07T03:30:28;5.15;;;3.38;;
63312;SDS011;49442;45.640;13.812;2023-05-07T03:32:53;3.92;;;3.53;;
63312;SDS011;49442;45.640;13.812;2023-05-07T03:35:19;4.50;;;4.05;;
63312;SDS011;49442;45.640;13.812;2023-05-07T03:37:45;7.40;;;3.42;;
63312;SDS011;49442;45.640;13.812;2023-05-07T03:40:11;6.50;;;4.32;;
63312;SDS011;49442;45.640;13.812;2023-05-07T03:42:37;5.13;;;3.80;;
63312;SDS011;49442;45.640;13.812;2023-05-07T03:45:03;5.70;;;3.78;;
63312;SDS011;49442;45.640;13.812;2023-05-07T03:47:28;9.27;;;4.32;;
63312;SDS011;49442;45.640;13.812;2023-05-07T03:49:55;4.47;;;3.67;;
63312;SDS011;49442;45.640;13.812;2023-05-07T03:52:20;4.13;;;3.55;;
63312;SDS011;49442;45.640;13.812;2023-05-07T03:54:50;4.95;;;3.60;;
63312;SDS011;49442;45.640;13.812;2023-05-07T03:57:17;6.13;;;3.55;;
63312;SDS011;49442;45.640;13.812;2023-05-07T03:59:43;5.60;;;4.10;;
63312;SDS011;49442;45.640;13.812;2023-05-07T04:02:08;3.95;;;3.50;;
63312;SDS011;49442;45.640;13.812;2023-05-07T04:04:34;3.97;;;3.58;;
63312;SDS011;49442;45.640;13.812;2023-05-07T04:07:00;5.50;;;3.50;;
63312;SDS011;49442;45.640;13.812;2023-05-07T04:09:25;6.20;;;3.85;;
63312;SDS011;49442;45.640;13.812;2023-05-07T04:11:51;4.32;;;3.55;;
63312;SDS011;49442;45.640;13.812;2023-05-07T04:14:17;5.68;;;3.63;;
63312;SDS011;49442;45.640;13.812;2023-05-07T04:16:42;6.43;;;3.97;;
63312;SDS011;49442;45.640;13.812;2023-05-07T04:19:08;4.72;;;4.03;;
63312;SDS011;49442;45.640;13.812;2023-05-07T04:21:34;6.78;;;4.22;;
63312;SDS011;49442;45.640;13.812;2023-05-07T04:24:00;4.32;;;3.80;;
63312;SDS011;49442;45.640;13.812;2023-05-07T04:26:28;5.05;;;3.67;;
63312;SDS011;49442;45.640;13.812;2023-05-07T04:28:54;3.95;;;3.58;;
63312;SDS011;49442;45.640;13.812;2023-05-07T04:31:20;4.25;;;3.40;;
63312;SDS011;49442;45.640;13.812;2023-05-07T04:33:46;4.07;;;3.67;;
63312;SDS011;49442;45.640;13.812;2023-05-07T04:36:11;7.43;;;3.90;;
63312;SDS011;49442;45.640;13.812;2023-05-07T04:38:37;7.85;;;3.80;;
63312;SDS011;49442;45.640;13.812;2023-05-07T04:41:04;4.03;;;3.63;;
63312;SDS011;49442;45.640;13.812;2023-05-07T04:43:31;6.22;;;3.85;;
63312;SDS011;49442;45.640;13.812;2023-05-07T04:45:56;6.70;;;3.85;;
63312;SDS011;49442;45.640;13.812;2023-05-07T04:48:22;6.38;;;3.75;;
63312;SDS011;49442;45.640;13.812;2023-05-07T04:50:48;7.43;;;4.68;;
63312;SDS011;49442;45.640;13.812;2023-05-07T04:53:14;5.25;;;3.55;;
63312;SDS011;49442;45.640;13.812;2023-05-07T04:55:40;6.63;;;4.55;;
63312;SDS011;49442;45.640;13.812;2023-05-07T04:58:07;5.68;;;3.83;;
63312;SDS011;49442;45.640;13.812;2023-05-07T05:00:32;3.85;;;3.35;;
63312;SDS011;49442;45.640;13.812;2023-05-07T05:02:58;4.57;;;3.95;;
63312;SDS011;49442;45.640;13.812;2023-05-07T05:05:24;4.70;;;3.97;;
63312;SDS011;49442;45.640;13.812;2023-05-07T05:07:50;3.83;;;3.25;;
63312;SDS011;49442;45.640;13.812;2023-05-07T05:10:16;6.55;;;4.10;;
63312;SDS011;49442;45.640;13.812;2023-05-07T05:12:42;6.38;;;3.58;;
63312;SDS011;49442;45.640;13.812;2023-05-07T05:15:10;6.47;;;4.10;;
63312;SDS011;49442;45.640;13.812;2023-05-07T05:17:38;7.72;;;3.53;;
63312;SDS011;49442;45.640;13.812;2023-05-07T05:20:04;6.30;;;4.07;;
63312;SDS011;49442;45.640;13.812;2023-05-07T05:22:31;11.45;;;4.03;;
63312;SDS011;49442;45.640;13.812;2023-05-07T05:24:57;4.50;;;3.40;;
63312;SDS011;49442;45.640;13.812;2023-05-07T05:27:22;5.05;;;3.75;;
63312;SDS011;49442;45.640;13.812;2023-05-07T05:29:48;6.03;;;3.40;;
63312;SDS011;49442;45.640;13.812;2023-05-07T05:32:14;7.47;;;4.15;;
63312;SDS011;49442;45.640;13.812;2023-05-07T05:34:40;7.80;;;3.80;;
63312;SDS011;49442;45.640;13.812;2023-05-07T05:37:05;3.88;;;3.47;;
63312;SDS011;49442;45.640;13.812;2023-05-07T05:39:31;5.70;;;3.83;;
63312;SDS011;49442;45.640;13.812;2023-05-07T05:41:57;6.10;;;3.88;;
63312;SDS011;49442;45.640;13.812;2023-05-07T05:44:23;6.90;;;3.80;;
63312;SDS011;49442;45.640;13.812;2023-05-07T05:46:48;6.38;;;4.10;;
63312;SDS011;49442;45.640;13.812;2023-05-07T05:49:15;4.72;;;3.58;;
63312;SDS011;49442;45.640;13.812;2023-05-07T05:51:40;4.32;;;3.90;;
63312;SDS011;49442;45.640;13.812;2023-05-07T05:54:06;10.25;;;4.40;;
63312;SDS011;49442;45.640;13.812;2023-05-07T05:56:32;7.60;;;4.03;;
63312;SDS011;49442;45.640;13.812;2023-05-07T05:58:58;7.13;;;3.67;;
63312;SDS011;49442;45.640;13.812;2023-05-07T06:01:23;6.10;;;3.45;;
63312;SDS011;49442;45.640;13.812;2023-05-07T06:03:49;6.20;;;3.88;;
63312;SDS011;49442;45.640;13.812;2023-05-07T06:06:15;6.00;;;3.88;;
63312;SDS011;49442;45.640;13.812;2023-05-07T06:08:41;4.80;;;4.00;;
63312;SDS011;49442;45.640;13.812;2023-05-07T06:11:07;4.63;;;3.95;;
63312;SDS011;49442;45.640;13.812;2023-05-07T06:13:32;4.85;;;4.13;;
63312;SDS011;49442;45.640;13.812;2023-05-07T06:15:58;5.35;;;3.97;;
63312;SDS011;49442;45.640;13.812;2023-05-07T06:18:24;4.38;;;3.70;;
63312;SDS011;49442;45.640;13.812;2023-05-07T06:20:50;4.68;;;3.58;;
63312;SDS011;49442;45.640;13.812;2023-05-07T06:23:16;5.97;;;4.30;;
63312;SDS011;49442;45.640;13.812;2023-05-07T06:25:48;5.40;;;3.83;;
63312;SDS011;49442;45.640;13.812;2023-05-07T06:28:15;6.38;;;3.60;;
63312;SDS011;49442;45.640;13.812;2023-05-07T06:30:41;4.93;;;3.97;;
63312;SDS011;49442;45.640;13.812;2023-05-07T06:33:06;6.15;;;3.90;;
63312;SDS011;49442;45.640;13.812;2023-05-07T06:35:32;4.88;;;3.90;;
63312;SDS011;49442;45.640;13.812;2023-05-07T06:37:59;6.07;;;4.28;;
63312;SDS011;49442;45.640;13.812;2023-05-07T06:40:25;6.82;;;4.75;;
63312;SDS011;49442;45.640;13.812;2023-05-07T06:42:51;7.68;;;4.20;;
63312;SDS011;49442;45.640;13.812;2023-05-07T06:45:17;4.72;;;4.32;;
63312;SDS011;49442;45.640;13.812;2023-05-07T06:47:43;7.65;;;4.82;;
63312;SDS011;49442;45.640;13.812;2023-05-07T06:50:08;5.57;;;4.60;;
63312;SDS011;49442;45.640;13.812;2023-05-07T06:52:34;5.15;;;4.65;;
63312;SDS011;49442;45.640;13.812;2023-05-07T06:55:00;9.18;;;4.32;;
63312;SDS011;49442;45.640;13.812;2023-05-07T06:57:26;6.07;;;4.38;;
63312;SDS011;49442;45.640;13.812;2023-05-07T06:59:52;6.20;;;4.80;;
63312;SDS011;49442;45.640;13.812;2023-05-07T07:02:21;7.20;;;5.28;;
63312;SDS011;49442;45.640;13.812;2023-05-07T07:04:46;7.72;;;4.90;;
63312;SDS011;49442;45.640;13.812;2023-05-07T07:07:12;7.32;;;4.88;;
63312;SDS011;49442;45.640;13.812;2023-05-07T07:09:38;8.48;;;5.15;;
63312;SDS011;49442;45.640;13.812;2023-05-07T07:12:04;9.82;;;5.10;;
63312;SDS011;49442;45.640;13.812;2023-05-07T07:14:29;6.13;;;4.63;;
63312;SDS011;49442;45.640;13.812;2023-05-07T07:16:55;8.25;;;5.60;;
63312;SDS011;49442;45.640;13.812;2023-05-07T07:19:27;6.32;;;4.63;;
63312;SDS011;49442;45.640;13.812;2023-05-07T07:21:56;10.55;;;4.55;;
63312;SDS011;49442;45.640;13.812;2023-05-07T07:24:22;5.65;;;4.13;;
63312;SDS011;49442;45.640;13.812;2023-05-07T07:26:48;5.95;;;3.83;;
63312;SDS011;49442;45.640;13.812;2023-05-07T07:29:13;7.70;;;3.78;;
63312;SDS011;49442;45.640;13.812;2023-05-07T07:31:39;5.93;;;3.03;;
63312;SDS011;49442;45.640;13.812;2023-05-07T07:34:05;6.78;;;3.10;;
63312;SDS011;49442;45.640;13.812;2023-05-07T07:36:31;5.60;;;3.40;;
63312;SDS011;49442;45.640;13.812;2023-05-07T07:38:57;4.05;;;2.70;;
63312;SDS011;49442;45.640;13.812;2023-05-07T07:41:25;2.83;;;2.45;;
63312;SDS011;49442;45.640;13.812;2023-05-07T07:43:51;8.10;;;2.88;;
63312;SDS011;49442;45.640;13.812;2023-05-07T07:46:16;4.07;;;2.45;;
63312;SDS011;49442;45.640;13.812;2023-05-07T07:48:42;3.97;;;2.80;;
63312;SDS011;49442;45.640;13.812;2023-05-07T07:51:08;4.80;;;2.75;;
63312;SDS011;49442;45.640;13.812;2023-05-07T07:53:34;3.53;;;2.28;;
63312;SDS011;49442;45.640;13.812;2023-05-07T07:56:00;4.93;;;2.35;;
63312;SDS011;49442;45.640;13.812;2023-05-07T07:58:25;9.20;;;2.92;;
63312;SDS011;49442;45.640;13.812;2023-05-07T08:00:51;4.20;;;2.58;;
63312;SDS011;49442;45.640;13.812;2023-05-07T08:03:17;5.10;;;3.03;;
63312;SDS011;49442;45.640;13.812;2023-05-07T08:05:42;5.18;;;2.70;;
63312;SDS011;49442;45.640;13.812;2023-05-07T08:08:08;3.60;;;2.25;;
63312;SDS011;49442;45.640;13.812;2023-05-07T08:10:34;4.57;;;2.85;;
63312;SDS011;49442;45.640;13.812;2023-05-07T08:13:03;5.00;;;2.88;;
63312;SDS011;49442;45.640;13.812;2023-05-07T08:15:29;9.38;;;3.45;;
63312;SDS011;49442;45.640;13.812;2023-05-07T08:17:55;4.38;;;3.25;;
63312;SDS011;49442;45.640;13.812;2023-05-07T08:20:22;5.45;;;3.95;;
63312;SDS011;49442;45.640;13.812;2023-05-07T08:22:48;6.78;;;4.57;;
63312;SDS011;49442;45.640;13.812;2023-05-07T08:25:14;8.35;;;4.85;;
63312;SDS011;49442;45.640;13.812;2023-05-07T08:27:40;8.48;;;4.55;;
63312;SDS011;49442;45.640;13.812;2023-05-07T08:30:05;7.32;;;4.80;;
63312;SDS011;49442;45.640;13.812;2023-05-07T08:32:32;6.40;;;4.45;;
63312;SDS011;49442;45.640;13.812;2023-05-07T08:34:57;9.70;;;5.15;;
63312;SDS011;49442;45.640;13.812;2023-05-07T08:37:23;6.20;;;4.90;;
63312;SDS011;49442;45.640;13.812;2023-05-07T08:39:49;8.05;;;4.97;;
63312;SDS011;49442;45.640;13.812;2023-05-07T08:42:15;5.15;;;4.65;;
63312;SDS011;49442;45.640;13.812;2023-05-07T08:44:42;7.65;;;5.28;;
63312;SDS011;49442;45.640;13.812;2023-05-07T08:47:13;7.93;;;4.85;;
63312;SDS011;49442;45.640;13.812;2023-05-07T08:49:39;7.43;;;5.55;;
63312;SDS011;49442;45.640;13.812;2023-05-07T08:52:05;5.95;;;4.80;;
63312;SDS011;49442;45.640;13.812;2023-05-07T08:54:31;7.53;;;4.88;;
63312;SDS011;49442;45.640;13.812;2023-05-07T08:56:57;6.28;;;4.18;;
63312;SDS011;49442;45.640;13.812;2023-05-07T08:59:22;6.25;;;4.70;;
63312;SDS011;49442;45.640;13.812;2023-05-07T09:01:48;5.53;;;4.32;;
63312;SDS011;49442;45.640;13.812;2023-05-07T09:04:14;9.00;;;4.53;;
63312;SDS011;49442;45.640;13.812;2023-05-07T09:06:40;7.43;;;3.75;;
63312;SDS011;49442;45.640;13.812;2023-05-07T09:09:07;7.85;;;4.25;;
63312;SDS011;49442;45.640;13.812;2023-05-07T09:11:32;6.43;;;4.10;;
63312;SDS011;49442;45.640;13.812;2023-05-07T09:13:59;5.45;;;4.60;;
63312;SDS011;49442;45.640;13.812;2023-05-07T09:16:26;6.13;;;4.20;;
63312;SDS011;49442;45.640;13.812;2023-05-07T09:18:56;6.45;;;4.40;;
63312;SDS011;49442;45.640;13.812;2023-05-07T09:21:25;5.50;;;4.22;;
63312;SDS011;49442;45.640;13.812;2023-05-07T09:23:51;6.28;;;4.38;;
63312;SDS011;49442;45.640;13.812;2023-05-07T09:26:18;8.30;;;4.88;;
63312;SDS011;49442;45.640;13.812;2023-05-07T09:28:46;4.40;;;4.00;;
63312;SDS011;49442;45.640;13.812;2023-05-07T09:31:12;7.28;;;4.57;;
63312;SDS011;49442;45.640;13.812;2023-05-07T09:33:38;6.22;;;4.50;;
63312;SDS011;49442;45.640;13.812;2023-05-07T09:36:05;6.18;;;4.07;;
63312;SDS011;49442;45.640;13.812;2023-05-07T09:38:32;7.07;;;4.60;;
63312;SDS011;49442;45.640;13.812;2023-05-07T09:41:06;7.65;;;4.88;;
63312;SDS011;49442;45.640;13.812;2023-05-07T09:43:36;6.60;;;4.55;;
63312;SDS011;49442;45.640;13.812;2023-05-07T09:46:03;6.57;;;4.45;;
63312;SDS011;49442;45.640;13.812;2023-05-07T09:48:33;7.82;;;5.07;;
63312;SDS011;49442;45.640;13.812;2023-05-07T09:51:02;6.68;;;4.45;;
63312;SDS011;49442;45.640;13.812;2023-05-07T09:53:31;6.70;;;5.07;;
63312;SDS011;49442;45.640;13.812;2023-05-07T09:55:59;8.70;;;5.18;;
63312;SDS011;49442;45.640;13.812;2023-05-07T09:58:26;6.20;;;4.90;;
63312;SDS011;49442;45.640;13.812;2023-05-07T10:00:52;5.45;;;4.95;;
63312;SDS011;49442;45.640;13.812;2023-05-07T10:03:19;6.30;;;4.60;;
63312;SDS011;49442;45.640;13.812;2023-05-07T10:05:46;6.65;;;4.70;;
63312;SDS011;49442;45.640;13.812;2023-05-07T10:08:13;5.53;;;4.80;;
63312;SDS011;49442;45.640;13.812;2023-05-07T10:10:41;5.57;;;4.43;;
63312;SDS011;49442;45.640;13.812;2023-05-07T10:13:07;5.50;;;3.88;;
63312;SDS011;49442;45.640;13.812;2023-05-07T10:15:35;4.38;;;3.53;;
63312;SDS011;49442;45.640;13.812;2023-05-07T10:18:02;7.28;;;4.07;;
63312;SDS011;49442;45.640;13.812;2023-05-07T10:20:29;4.00;;;3.60;;
63312;SDS011;49442;45.640;13.812;2023-05-07T10:22:56;12.23;;;3.83;;
63312;SDS011;49442;45.640;13.812;2023-05-07T10:25:28;10.10;;;4.30;;
63312;SDS011;49442;45.640;13.812;2023-05-07T10:27:55;6.90;;;3.67;;
63312;SDS011;49442;45.640;13.812;2023-05-07T10:33:04;5.75;;;4.05;;
63312;SDS011;49442;45.640;13.812;2023-05-07T10:35:36;5.45;;;4.45;;
63312;SDS011;49442;45.640;13.812;2023-05-07T10:38:08;6.80;;;3.70;;
63312;SDS011;49442;45.640;13.812;2023-05-07T10:40:35;6.63;;;5.18;;
63312;SDS011;49442;45.640;13.812;2023-05-07T10:43:01;11.70;;;5.10;;
63312;SDS011;49442;45.640;13.812;2023-05-07T10:45:31;9.60;;;5.90;;
63312;SDS011;49442;45.640;13.812;2023-05-07T10:48:08;5.82;;;4.95;;
63312;SDS011;49442;45.640;13.812;2023-05-07T10:50:34;6.97;;;4.50;;
63312;SDS011;49442;45.640;13.812;2023-05-07T10:53:43;9.63;;;5.45;;
63312;SDS011;49442;45.640;13.812;2023-05-07T10:58:42;4.65;;;4.07;;
63312;SDS011;49442;45.640;13.812;2023-05-07T11:01:08;23.25;;;6.43;;
63312;SDS011;49442;45.640;13.812;2023-05-07T11:03:35;5.32;;;3.90;;
63312;SDS011;49442;45.640;13.812;2023-05-07T11:06:15;7.13;;;4.30;;
63312;SDS011;49442;45.640;13.812;2023-05-07T11:08:57;17.15;;;5.47;;
63312;SDS011;49442;45.640;13.812;2023-05-07T11:14:11;4.93;;;4.20;;
63312;SDS011;49442;45.640;13.812;2023-05-07T11:16:37;5.18;;;4.03;;
63312;SDS011;49442;45.640;13.812;2023-05-07T11:19:05;6.65;;;4.57;;
63312;SDS011;49442;45.640;13.812;2023-05-07T11:24:04;6.70;;;3.78;;
63312;SDS011;49442;45.640;13.812;2023-05-07T11:26:31;5.18;;;3.95;;
63312;SDS011;49442;45.640;13.812;2023-05-07T11:29:13;10.98;;;5.05;;
63312;SDS011;49442;45.640;13.812;2023-05-07T11:31:40;8.23;;;4.25;;
63312;SDS011;49442;45.640;13.812;2023-05-07T11:34:06;7.03;;;4.28;;
63312;SDS011;49442;45.640;13.812;2023-05-07T11:36:32;5.65;;;4.28;;
63312;SDS011;49442;45.640;13.812;2023-05-07T11:38:58;4.50;;;3.63;;
63312;SDS011;49442;45.640;13.812;2023-05-07T11:41:34;5.45;;;3.95;;
63312;SDS011;49442;45.640;13.812;2023-05-07T11:44:01;7.50;;;4.00;;
63312;SDS011;49442;45.640;13.812;2023-05-07T11:46:27;7.38;;;3.60;;
63312;SDS011;49442;45.640;13.812;2023-05-07T11:48:53;5.63;;;3.83;;
63312;SDS011;49442;45.640;13.812;2023-05-07T11:51:20;4.35;;;3.63;;
63312;SDS011;49442;45.640;13.812;2023-05-07T11:53:47;6.45;;;4.18;;
63312;SDS011;49442;45.640;13.812;2023-05-07T11:56:14;6.55;;;3.80;;
63312;SDS011;49442;45.640;13.812;2023-05-07T11:58:42;6.93;;;2.83;;
63312;SDS011;49442;45.640;13.812;2023-05-07T12:01:08;4.65;;;3.42;;
63312;SDS011;49442;45.640;13.812;2023-05-07T12:03:36;3.60;;;2.88;;
63312;SDS011;49442;45.640;13.812;2023-05-07T12:06:02;3.80;;;2.72;;
63312;SDS011;49442;45.640;13.812;2023-05-07T12:08:31;5.07;;;3.65;;
63312;SDS011;49442;45.640;13.812;2023-05-07T12:10:56;4.05;;;3.17;;
63312;SDS011;49442;45.640;13.812;2023-05-07T12:13:23;4.65;;;2.92;;
63312;SDS011;49442;45.640;13.812;2023-05-07T12:15:50;5.07;;;3.10;;
63312;SDS011;49442;45.640;13.812;2023-05-07T12:18:16;7.60;;;3.42;;
63312;SDS011;49442;45.640;13.812;2023-05-07T12:20:42;3.92;;;2.90;;
63312;SDS011;49442;45.640;13.812;2023-05-07T12:23:08;3.92;;;2.72;;
63312;SDS011;49442;45.640;13.812;2023-05-07T12:25:36;4.30;;;2.85;;
63312;SDS011;49442;45.640;13.812;2023-05-07T12:28:03;4.20;;;3.25;;
63312;SDS011;49442;45.640;13.812;2023-05-07T12:30:36;4.25;;;3.28;;
63312;SDS011;49442;45.640;13.812;2023-05-07T12:33:02;5.55;;;3.08;;
63312;SDS011;49442;45.640;13.812;2023-05-07T12:35:28;3.28;;;2.85;;
63312;SDS011;49442;45.640;13.812;2023-05-07T12:37:58;7.05;;;3.35;;
63312;SDS011;49442;45.640;13.812;2023-05-07T12:40:34;3.38;;;3.08;;
63312;SDS011;49442;45.640;13.812;2023-05-07T12:43:08;3.58;;;3.20;;
63312;SDS011;49442;45.640;13.812;2023-05-07T12:45:44;4.25;;;2.78;;
63312;SDS011;49442;45.640;13.812;2023-05-07T12:48:11;7.07;;;3.10;;
63312;SDS011;49442;45.640;13.812;2023-05-07T12:50:37;6.28;;;2.67;;
63312;SDS011;49442;45.640;13.812;2023-05-07T12:53:05;3.78;;;2.75;;
63312;SDS011;49442;45.640;13.812;2023-05-07T12:55:34;3.88;;;2.78;;
63312;SDS011;49442;45.640;13.812;2023-05-07T13:00:47;3.50;;;2.40;;
63312;SDS011;49442;45.640;13.812;2023-05-07T13:03:25;3.42;;;2.83;;
63312;SDS011;49442;45.640;13.812;2023-05-07T13:05:52;3.30;;;2.72;;
63312;SDS011;49442;45.640;13.812;2023-05-07T13:08:25;6.22;;;2.13;;
63312;SDS011;49442;45.640;13.812;2023-05-07T13:10:59;4.93;;;2.85;;
63312;SDS011;49442;45.640;13.812;2023-05-07T13:13:30;4.45;;;2.30;;
63312;SDS011;49442;45.640;13.812;2023-05-07T13:15:56;3.65;;;2.40;;
63312;SDS011;49442;45.640;13.812;2023-05-07T13:18:23;3.95;;;2.55;;
63312;SDS011;49442;45.640;13.812;2023-05-07T13:20:51;5.32;;;2.97;;
63312;SDS011;49442;45.640;13.812;2023-05-07T13:23:17;2.60;;;2.33;;
63312;SDS011;49442;45.640;13.812;2023-05-07T13:25:43;4.32;;;2.55;;
63312;SDS011;49442;45.640;13.812;2023-05-07T13:28:09;5.72;;;2.92;;
63312;SDS011;49442;45.640;13.812;2023-05-07T13:30:35;4.75;;;2.88;;
63312;SDS011;49442;45.640;13.812;2023-05-07T13:33:01;2.97;;;2.40;;
63312;SDS011;49442;45.640;13.812;2023-05-07T13:35:27;5.85;;;2.83;;
63312;SDS011;49442;45.640;13.812;2023-05-07T13:37:52;3.53;;;2.70;;
63312;SDS011;49442;45.640;13.812;2023-05-07T13:40:22;3.22;;;2.83;;
63312;SDS011;49442;45.640;13.812;2023-05-07T13:42:49;5.28;;;2.80;;
63312;SDS011;49442;45.640;13.812;2023-05-07T13:45:15;3.63;;;3.00;;
63312;SDS011;49442;45.640;13.812;2023-05-07T13:47:42;5.60;;;2.90;;
63312;SDS011;49442;45.640;13.812;2023-05-07T13:50:08;3.80;;;2.88;;
63312;SDS011;49442;45.640;13.812;2023-05-07T13:52:36;6.88;;;3.08;;
63312;SDS011;49442;45.640;13.812;2023-05-07T13:55:05;3.92;;;3.53;;
63312;SDS011;49442;45.640;13.812;2023-05-07T13:57:33;4.50;;;3.45;;
63312;SDS011;49442;45.640;13.812;2023-05-07T13:59:59;5.30;;;4.22;;
63312;SDS011;49442;45.640;13.812;2023-05-07T14:02:24;4.70;;;4.20;;
63312;SDS011;49442;45.640;13.812;2023-05-07T14:04:50;5.43;;;3.80;;
63312;SDS011;49442;45.640;13.812;2023-05-07T14:07:16;5.03;;;4.53;;
63312;SDS011;49442;45.640;13.812;2023-05-07T14:09:41;7.50;;;5.13;;
63312;SDS011;49442;45.640;13.812;2023-05-07T14:12:07;5.30;;;4.57;;
63312;SDS011;49442;45.640;13.812;2023-05-07T14:14:33;8.57;;;4.70;;
63312;SDS011;49442;45.640;13.812;2023-05-07T14:16:59;5.13;;;4.03;;
63312;SDS011;49442;45.640;13.812;2023-05-07T14:19:24;4.00;;;3.60;;
63312;SDS011;49442;45.640;13.812;2023-05-07T14:21:50;4.85;;;3.53;;
63312;SDS011;49442;45.640;13.812;2023-05-07T14:24:16;6.25;;;3.75;;
63312;SDS011;49442;45.640;13.812;2023-05-07T14:26:41;4.75;;;3.47;;
63312;SDS011;49442;45.640;13.812;2023-05-07T14:29:07;3.60;;;3.28;;
63312;SDS011;49442;45.640;13.812;2023-05-07T14:31:33;7.20;;;3.30;;
63312;SDS011;49442;45.640;13.812;2023-05-07T14:33:58;6.07;;;3.10;;
63312;SDS011;49442;45.640;13.812;2023-05-07T14:36:24;5.45;;;3.67;;
63312;SDS011;49442;45.640;13.812;2023-05-07T14:38:51;5.78;;;3.50;;
63312;SDS011;49442;45.640;13.812;2023-05-07T14:41:21;8.23;;;3.33;;
63312;SDS011;49442;45.640;13.812;2023-05-07T14:43:47;8.13;;;3.50;;